sensor_id;sensor_type;location;lat;lon;timestamp;temperature;humidity
7307;DHT22;3694;48.732;9.248;2023-02-03T00:00:10;4.80;99.90
7307;DHT22;3694;48.732;9.248;2023-02-03T00:02:35;4.80;99.90
7307;DHT22;3694;48.732;9.248;2023-02-03T00:05:01;4.80;99.90
7307;DHT22;3694;48.732;9.248;2023-02-03T00:07:27;4.80;99.90
7307;DHT22;3694;48.732;9.248;2023-02-03T00:09:55;4.80;99.90
7307;DHT22;3694;48.732;9.248;2023-02-03T00:12:20;4.70;99.90
7307;DHT22;3694;48.732;9.248;2023-02-03T00:14:46;4.60;99.90
7307;DHT22;3694;48.732;9.248;2023-02-03T00:17:11;4.60;99.90
7307;DHT22;3694;48.732;9.248;2023-02-03T00:19:37;4.60;99.90
7307;DHT22;3694;48.732;9.248;2023-02-03T00:22:02;4.60;99.90
7307;DHT22;3694;48.732;9.248;2023-02-03T00:24:28;4.60;99.90
7307;DHT22;3694;48.732;9.248;2023-02-03T00:26:53;4.60;99.90
7307;DHT22;3694;48.732;9.248;2023-02-03T00:29:19;4.40;99.90
7307;DHT22;3694;48.732;9.248;2023-02-03T00:31:49;4.60;99.90
7307;DHT22;3694;48.732;9.248;2023-02-03T00:34:14;4.60;99.90
7307;DHT22;3694;48.732;9.248;2023-02-03T00:36:40;4.60;99.90
7307;DHT22;3694;48.732;9.248;2023-02-03T00:39:05;4.60;99.90
7307;DHT22;3694;48.732;9.248;2023-02-03T00:41:31;4.60;99.90
7307;DHT22;3694;48.732;9.248;2023-02-03T00:43:56;4.60;99.90
7307;DHT22;3694;48.732;9.248;2023-02-03T00:46:22;4.60;99.90
7307;DHT22;3694;48.732;9.248;2023-02-03T00:48:47;4.60;99.90
7307;DHT22;3694;48.732;9.248;2023-02-03T00:51:13;4.60;99.90
7307;DHT22;3694;48.732;9.248;2023-02-03T00:53:39;4.60;99.90
7307;DHT22;3694;48.732;9.248;2023-02-03T00:56:04;4.60;99.90
7307;DHT22;3694;48.732;9.248;2023-02-03T00:58:39;4.70;99.90
7307;DHT22;3694;48.732;9.248;2023-02-03T01:01:05;4.60;99.90
7307;DHT22;3694;48.732;9.248;2023-02-03T01:03:31;4.60;99.90
7307;DHT22;3694;48.732;9.248;2023-02-03T01:06:08;4.60;99.90
7307;DHT22;3694;48.732;9.248;2023-02-03T01:08:33;4.70;99.90
7307;DHT22;3694;48.732;9.248;2023-02-03T01:11:05;4.60;99.90
7307;DHT22;3694;48.732;9.248;2023-02-03T01:13:30;4.60;99.90
7307;DHT22;3694;48.732;9.248;2023-02-03T01:15:56;4.60;99.90
7307;DHT22;3694;48.732;9.248;2023-02-03T01:18:21;4.60;99.90
7307;DHT22;3694;48.732;9.248;2023-02-03T01:20:47;4.60;99.90
7307;DHT22;3694;48.732;9.248;2023-02-03T01:23:12;4.60;99.90
7307;DHT22;3694;48.732;9.248;2023-02-03T01:25:38;4.60;99.90
7307;DHT22;3694;48.732;9.248;2023-02-03T01:28:03;4.60;99.90
7307;DHT22;3694;48.732;9.248;2023-02-03T01:30:30;4.60;99.90
7307;DHT22;3694;48.732;9.248;2023-02-03T01:32:55;4.60;99.90
7307;DHT22;3694;48.732;9.248;2023-02-03T01:35:21;4.60;99.90
7307;DHT22;3694;48.732;9.248;2023-02-03T01:37:46;4.60;99.90
7307;DHT22;3694;48.732;9.248;2023-02-03T01:40:12;4.70;99.90
7307;DHT22;3694;48.732;9.248;2023-02-03T01:42:37;4.50;99.90
7307;DHT22;3694;48.732;9.248;2023-02-03T01:45:03;4.60;99.90
7307;DHT22;3694;48.732;9.248;2023-02-03T01:47:47;4.60;99.90
7307;DHT22;3694;48.732;9.248;2023-02-03T01:50:20;4.60;99.90
7307;DHT22;3694;48.732;9.248;2023-02-03T01:52:52;4.60;99.90
7307;DHT22;3694;48.732;9.248;2023-02-03T01:55:22;4.60;99.90
7307;DHT22;3694;48.732;9.248;2023-02-03T01:57:53;4.60;99.90
7307;DHT22;3694;48.732;9.248;2023-02-03T02:00:20;4.60;99.90
7307;DHT22;3694;48.732;9.248;2023-02-03T02:02:46;4.60;99.90
7307;DHT22;3694;48.732;9.248;2023-02-03T02:05:33;4.60;99.90
7307;DHT22;3694;48.732;9.248;2023-02-03T02:08:01;4.60;99.90
7307;DHT22;3694;48.732;9.248;2023-02-03T02:10:30;4.60;99.90
7307;DHT22;3694;48.732;9.248;2023-02-03T02:12:57;4.60;99.90
7307;DHT22;3694;48.732;9.248;2023-02-03T02:15:39;4.60;99.90
7307;DHT22;3694;48.732;9.248;2023-02-03T02:21:11;4.50;99.90
7307;DHT22;3694;48.732;9.248;2023-02-03T02:32:56;4.30;99.90
7307;DHT22;3694;48.732;9.248;2023-02-03T02:35:57;4.20;99.90
7307;DHT22;3694;48.732;9.248;2023-02-03T02:38:45;4.10;99.90
7307;DHT22;3694;48.732;9.248;2023-02-03T02:44:23;4.10;99.90
7307;DHT22;3694;48.732;9.248;2023-02-03T02:46:53;4.10;99.90
7307;DHT22;3694;48.732;9.248;2023-02-03T02:49:36;4.10;99.90
7307;DHT22;3694;48.732;9.248;2023-02-03T02:52:04;4.10;99.90
7307;DHT22;3694;48.732;9.248;2023-02-03T02:54:32;4.10;99.90
7307;DHT22;3694;48.732;9.248;2023-02-03T02:57:02;4.10;99.90
7307;DHT22;3694;48.732;9.248;2023-02-03T02:59:29;4.00;99.90
7307;DHT22;3694;48.732;9.248;2023-02-03T03:01:54;4.00;99.90
7307;DHT22;3694;48.732;9.248;2023-02-03T03:04:24;4.10;99.90
7307;DHT22;3694;48.732;9.248;2023-02-03T03:07:03;4.10;99.90
7307;DHT22;3694;48.732;9.248;2023-02-03T03:09:34;4.20;99.90
7307;DHT22;3694;48.732;9.248;2023-02-03T03:12:06;4.30;99.90
7307;DHT22;3694;48.732;9.248;2023-02-03T03:14:34;4.40;99.90
7307;DHT22;3694;48.732;9.248;2023-02-03T03:17:04;4.40;99.90
7307;DHT22;3694;48.732;9.248;2023-02-03T03:19:34;4.50;99.90
7307;DHT22;3694;48.732;9.248;2023-02-03T03:22:05;4.50;99.90
7307;DHT22;3694;48.732;9.248;2023-02-03T03:24:37;4.50;99.90
7307;DHT22;3694;48.732;9.248;2023-02-03T03:27:08;4.50;99.90
7307;DHT22;3694;48.732;9.248;2023-02-03T03:29:55;4.60;99.90
7307;DHT22;3694;48.732;9.248;2023-02-03T03:32:21;4.60;99.90
7307;DHT22;3694;48.732;9.248;2023-02-03T03:34:47;4.50;99.90
7307;DHT22;3694;48.732;9.248;2023-02-03T03:37:37;4.50;99.90
7307;DHT22;3694;48.732;9.248;2023-02-03T03:40:21;4.60;99.90
7307;DHT22;3694;48.732;9.248;2023-02-03T03:42:52;4.60;99.90
7307;DHT22;3694;48.732;9.248;2023-02-03T03:45:42;4.60;99.90
7307;DHT22;3694;48.732;9.248;2023-02-03T03:48:18;4.60;99.90
7307;DHT22;3694;48.732;9.248;2023-02-03T03:50:51;4.60;99.90
7307;DHT22;3694;48.732;9.248;2023-02-03T03:53:18;4.60;99.90
7307;DHT22;3694;48.732;9.248;2023-02-03T03:55:49;4.60;99.90
7307;DHT22;3694;48.732;9.248;2023-02-03T03:58:20;4.60;99.90
7307;DHT22;3694;48.732;9.248;2023-02-03T04:00:47;4.60;99.90
7307;DHT22;3694;48.732;9.248;2023-02-03T04:03:16;4.60;99.90
7307;DHT22;3694;48.732;9.248;2023-02-03T04:05:43;4.70;99.90
7307;DHT22;3694;48.732;9.248;2023-02-03T04:08:09;4.70;99.90
7307;DHT22;3694;48.732;9.248;2023-02-03T04:10:40;4.60;99.90
7307;DHT22;3694;48.732;9.248;2023-02-03T04:13:07;4.70;99.90
7307;DHT22;3694;48.732;9.248;2023-02-03T04:15:33;4.70;99.90
7307;DHT22;3694;48.732;9.248;2023-02-03T04:17:59;4.70;99.90
7307;DHT22;3694;48.732;9.248;2023-02-03T04:20:26;4.70;99.90
7307;DHT22;3694;48.732;9.248;2023-02-03T04:22:52;4.70;99.90
7307;DHT22;3694;48.732;9.248;2023-02-03T04:25:18;4.60;99.90
7307;DHT22;3694;48.732;9.248;2023-02-03T04:27:44;4.60;99.90
7307;DHT22;3694;48.732;9.248;2023-02-03T04:30:10;4.60;99.90
7307;DHT22;3694;48.732;9.248;2023-02-03T04:32:36;4.60;99.90
7307;DHT22;3694;48.732;9.248;2023-02-03T04:35:03;4.50;99.90
7307;DHT22;3694;48.732;9.248;2023-02-03T04:37:29;4.50;99.90
7307;DHT22;3694;48.732;9.248;2023-02-03T04:39:55;4.50;99.90
7307;DHT22;3694;48.732;9.248;2023-02-03T04:42:21;4.50;99.90
7307;DHT22;3694;48.732;9.248;2023-02-03T04:44:46;4.50;99.90
7307;DHT22;3694;48.732;9.248;2023-02-03T04:47:12;4.40;99.90
7307;DHT22;3694;48.732;9.248;2023-02-03T04:49:38;4.40;99.90
7307;DHT22;3694;48.732;9.248;2023-02-03T04:52:04;4.40;99.90
7307;DHT22;3694;48.732;9.248;2023-02-03T04:54:29;4.40;99.90
7307;DHT22;3694;48.732;9.248;2023-02-03T04:56:55;4.40;99.90
7307;DHT22;3694;48.732;9.248;2023-02-03T04:59:20;4.40;99.90
7307;DHT22;3694;48.732;9.248;2023-02-03T05:01:46;4.30;99.90
7307;DHT22;3694;48.732;9.248;2023-02-03T05:04:11;4.40;99.90
7307;DHT22;3694;48.732;9.248;2023-02-03T05:06:37;4.30;99.90
7307;DHT22;3694;48.732;9.248;2023-02-03T05:09:02;4.30;99.90
7307;DHT22;3694;48.732;9.248;2023-02-03T05:11:28;4.30;99.90
7307;DHT22;3694;48.732;9.248;2023-02-03T05:13:54;4.30;99.90
7307;DHT22;3694;48.732;9.248;2023-02-03T05:16:19;4.20;99.90
7307;DHT22;3694;48.732;9.248;2023-02-03T05:18:45;4.20;99.90
7307;DHT22;3694;48.732;9.248;2023-02-03T05:21:10;4.30;99.90
7307;DHT22;3694;48.732;9.248;2023-02-03T05:23:36;4.20;99.90
7307;DHT22;3694;48.732;9.248;2023-02-03T05:26:02;4.20;99.90
7307;DHT22;3694;48.732;9.248;2023-02-03T05:28:28;4.20;99.90
7307;DHT22;3694;48.732;9.248;2023-02-03T05:30:53;4.30;99.90
7307;DHT22;3694;48.732;9.248;2023-02-03T05:33:19;4.30;99.90
7307;DHT22;3694;48.732;9.248;2023-02-03T05:35:44;4.30;99.90
7307;DHT22;3694;48.732;9.248;2023-02-03T05:38:10;4.30;99.90
7307;DHT22;3694;48.732;9.248;2023-02-03T05:40:35;4.30;99.90
7307;DHT22;3694;48.732;9.248;2023-02-03T05:43:19;4.30;99.90
7307;DHT22;3694;48.732;9.248;2023-02-03T05:45:45;4.20;99.90
7307;DHT22;3694;48.732;9.248;2023-02-03T05:48:10;4.30;99.90
7307;DHT22;3694;48.732;9.248;2023-02-03T05:50:36;4.30;99.90
7307;DHT22;3694;48.732;9.248;2023-02-03T05:53:04;4.30;99.90
7307;DHT22;3694;48.732;9.248;2023-02-03T05:55:30;4.30;99.90
7307;DHT22;3694;48.732;9.248;2023-02-03T05:57:57;4.20;99.90
7307;DHT22;3694;48.732;9.248;2023-02-03T06:00:23;4.20;99.90
7307;DHT22;3694;48.732;9.248;2023-02-03T06:02:53;4.20;99.90
7307;DHT22;3694;48.732;9.248;2023-02-03T06:05:20;4.20;99.90
7307;DHT22;3694;48.732;9.248;2023-02-03T06:07:46;4.30;99.90
7307;DHT22;3694;48.732;9.248;2023-02-03T06:10:12;4.20;99.90
7307;DHT22;3694;48.732;9.248;2023-02-03T06:12:38;4.20;99.90
7307;DHT22;3694;48.732;9.248;2023-02-03T06:15:04;4.20;99.90
7307;DHT22;3694;48.732;9.248;2023-02-03T06:17:31;4.30;99.90
7307;DHT22;3694;48.732;9.248;2023-02-03T06:19:56;4.20;99.90
7307;DHT22;3694;48.732;9.248;2023-02-03T06:22:22;4.60;99.90
7307;DHT22;3694;48.732;9.248;2023-02-03T06:24:48;4.30;99.90
7307;DHT22;3694;48.732;9.248;2023-02-03T06:27:14;4.30;99.90
7307;DHT22;3694;48.732;9.248;2023-02-03T06:29:41;4.30;99.90
7307;DHT22;3694;48.732;9.248;2023-02-03T06:32:07;4.30;99.90
7307;DHT22;3694;48.732;9.248;2023-02-03T06:34:32;4.30;99.90
7307;DHT22;3694;48.732;9.248;2023-02-03T06:36:58;4.30;99.90
7307;DHT22;3694;48.732;9.248;2023-02-03T06:39:24;4.30;99.90
7307;DHT22;3694;48.732;9.248;2023-02-03T06:41:49;4.30;99.90
7307;DHT22;3694;48.732;9.248;2023-02-03T06:44:16;4.30;99.90
7307;DHT22;3694;48.732;9.248;2023-02-03T06:46:42;4.30;99.90
7307;DHT22;3694;48.732;9.248;2023-02-03T06:49:07;4.30;99.90
7307;DHT22;3694;48.732;9.248;2023-02-03T06:51:33;4.20;99.90
7307;DHT22;3694;48.732;9.248;2023-02-03T06:53:59;4.20;99.90
7307;DHT22;3694;48.732;9.248;2023-02-03T06:56:24;4.20;99.90
7307;DHT22;3694;48.732;9.248;2023-02-03T06:58:50;4.20;99.90
7307;DHT22;3694;48.732;9.248;2023-02-03T07:01:15;4.20;99.90
7307;DHT22;3694;48.732;9.248;2023-02-03T07:03:41;4.20;99.90
7307;DHT22;3694;48.732;9.248;2023-02-03T07:06:06;4.20;99.90
7307;DHT22;3694;48.732;9.248;2023-02-03T07:08:32;4.20;99.90
7307;DHT22;3694;48.732;9.248;2023-02-03T07:10:58;4.20;99.90
7307;DHT22;3694;48.732;9.248;2023-02-03T07:13:23;4.70;99.90
7307;DHT22;3694;48.732;9.248;2023-02-03T07:15:49;4.20;99.90
7307;DHT22;3694;48.732;9.248;2023-02-03T07:18:15;4.30;99.90
7307;DHT22;3694;48.732;9.248;2023-02-03T07:20:42;4.50;99.90
7307;DHT22;3694;48.732;9.248;2023-02-03T07:23:07;4.30;99.90
7307;DHT22;3694;48.732;9.248;2023-02-03T07:25:33;4.30;99.90
7307;DHT22;3694;48.732;9.248;2023-02-03T07:27:58;4.30;99.90
7307;DHT22;3694;48.732;9.248;2023-02-03T07:30:24;4.30;99.90
7307;DHT22;3694;48.732;9.248;2023-02-03T07:32:51;4.30;99.90
7307;DHT22;3694;48.732;9.248;2023-02-03T07:35:17;4.30;99.90
7307;DHT22;3694;48.732;9.248;2023-02-03T07:37:43;4.30;99.90
7307;DHT22;3694;48.732;9.248;2023-02-03T07:40:10;4.30;99.90
7307;DHT22;3694;48.732;9.248;2023-02-03T07:42:40;4.40;99.90
7307;DHT22;3694;48.732;9.248;2023-02-03T07:45:06;4.30;99.90
7307;DHT22;3694;48.732;9.248;2023-02-03T07:47:32;4.40;99.90
7307;DHT22;3694;48.732;9.248;2023-02-03T07:49:58;4.50;99.90
7307;DHT22;3694;48.732;9.248;2023-02-03T07:52:23;4.40;99.90
7307;DHT22;3694;48.732;9.248;2023-02-03T07:54:49;4.40;99.90
7307;DHT22;3694;48.732;9.248;2023-02-03T07:57:14;4.40;99.90
7307;DHT22;3694;48.732;9.248;2023-02-03T07:59:40;4.50;99.90
7307;DHT22;3694;48.732;9.248;2023-02-03T08:02:05;4.50;99.90
7307;DHT22;3694;48.732;9.248;2023-02-03T08:04:31;4.50;99.90
7307;DHT22;3694;48.732;9.248;2023-02-03T08:06:56;4.60;99.90
7307;DHT22;3694;48.732;9.248;2023-02-03T08:09:22;4.60;99.90
7307;DHT22;3694;48.732;9.248;2023-02-03T08:11:47;4.70;99.90
7307;DHT22;3694;48.732;9.248;2023-02-03T08:14:13;4.70;99.90
7307;DHT22;3694;48.732;9.248;2023-02-03T08:16:38;4.70;99.90
7307;DHT22;3694;48.732;9.248;2023-02-03T08:19:04;4.80;99.90
7307;DHT22;3694;48.732;9.248;2023-02-03T08:21:30;4.90;99.90
7307;DHT22;3694;48.732;9.248;2023-02-03T08:23:56;4.90;99.90
7307;DHT22;3694;48.732;9.248;2023-02-03T08:26:22;4.90;99.90
7307;DHT22;3694;48.732;9.248;2023-02-03T08:28:48;4.90;99.90
7307;DHT22;3694;48.732;9.248;2023-02-03T08:31:14;5.00;99.90
7307;DHT22;3694;48.732;9.248;2023-02-03T08:33:40;5.00;99.90
7307;DHT22;3694;48.732;9.248;2023-02-03T08:36:06;5.00;99.90
7307;DHT22;3694;48.732;9.248;2023-02-03T08:38:32;5.00;99.90
7307;DHT22;3694;48.732;9.248;2023-02-03T08:40:58;5.00;99.90
7307;DHT22;3694;48.732;9.248;2023-02-03T08:43:23;5.10;99.90
7307;DHT22;3694;48.732;9.248;2023-02-03T08:45:49;5.10;99.90
7307;DHT22;3694;48.732;9.248;2023-02-03T08:48:14;5.00;99.90
7307;DHT22;3694;48.732;9.248;2023-02-03T08:50:41;5.00;99.90
7307;DHT22;3694;48.732;9.248;2023-02-03T08:53:08;5.10;99.90
7307;DHT22;3694;48.732;9.248;2023-02-03T08:55:37;5.20;99.90
7307;DHT22;3694;48.732;9.248;2023-02-03T08:58:03;5.40;99.90
7307;DHT22;3694;48.732;9.248;2023-02-03T09:00:28;5.50;99.90
7307;DHT22;3694;48.732;9.248;2023-02-03T09:02:54;5.50;99.90
7307;DHT22;3694;48.732;9.248;2023-02-03T09:05:19;5.50;99.90
7307;DHT22;3694;48.732;9.248;2023-02-03T09:07:45;5.50;99.90
7307;DHT22;3694;48.732;9.248;2023-02-03T09:10:11;5.50;99.90
7307;DHT22;3694;48.732;9.248;2023-02-03T09:12:36;5.50;99.90
7307;DHT22;3694;48.732;9.248;2023-02-03T09:15:02;5.60;99.90
7307;DHT22;3694;48.732;9.248;2023-02-03T09:17:28;5.70;99.90
7307;DHT22;3694;48.732;9.248;2023-02-03T09:19:53;5.80;99.90
7307;DHT22;3694;48.732;9.248;2023-02-03T09:22:19;5.80;99.90
7307;DHT22;3694;48.732;9.248;2023-02-03T09:24:44;5.80;99.90
7307;DHT22;3694;48.732;9.248;2023-02-03T09:27:10;5.90;99.90
7307;DHT22;3694;48.732;9.248;2023-02-03T09:29:35;6.00;99.90
7307;DHT22;3694;48.732;9.248;2023-02-03T09:32:01;6.20;99.90
7307;DHT22;3694;48.732;9.248;2023-02-03T09:34:31;6.20;99.90
7307;DHT22;3694;48.732;9.248;2023-02-03T09:36:56;6.30;99.90
7307;DHT22;3694;48.732;9.248;2023-02-03T09:39:22;6.40;99.90
7307;DHT22;3694;48.732;9.248;2023-02-03T09:44:33;6.30;99.90
7307;DHT22;3694;48.732;9.248;2023-02-03T09:47:09;6.40;99.90
7307;DHT22;3694;48.732;9.248;2023-02-03T09:49:43;6.50;99.90
7307;DHT22;3694;48.732;9.248;2023-02-03T09:52:17;6.50;99.90
7307;DHT22;3694;48.732;9.248;2023-02-03T09:57:20;6.50;99.90
7307;DHT22;3694;48.732;9.248;2023-02-03T09:59:47;6.40;99.90
7307;DHT22;3694;48.732;9.248;2023-02-03T10:11:09;6.40;99.90
7307;DHT22;3694;48.732;9.248;2023-02-03T10:19:25;6.60;99.90
7307;DHT22;3694;48.732;9.248;2023-02-03T10:21:54;6.60;99.90
7307;DHT22;3694;48.732;9.248;2023-02-03T10:24:34;6.70;99.90
7307;DHT22;3694;48.732;9.248;2023-02-03T10:27:02;6.80;99.90
7307;DHT22;3694;48.732;9.248;2023-02-03T10:31:57;6.90;99.90
7307;DHT22;3694;48.732;9.248;2023-02-03T10:34:23;7.00;99.90
7307;DHT22;3694;48.732;9.248;2023-02-03T10:37:02;7.00;99.90
7307;DHT22;3694;48.732;9.248;2023-02-03T10:39:46;7.00;99.90
7307;DHT22;3694;48.732;9.248;2023-02-03T10:42:12;6.80;99.90
7307;DHT22;3694;48.732;9.248;2023-02-03T10:44:42;6.70;99.90
7307;DHT22;3694;48.732;9.248;2023-02-03T10:47:22;6.60;99.90
7307;DHT22;3694;48.732;9.248;2023-02-03T10:49:54;6.50;99.90
7307;DHT22;3694;48.732;9.248;2023-02-03T10:52:32;6.60;99.90
7307;DHT22;3694;48.732;9.248;2023-02-03T10:57:44;6.70;99.90
7307;DHT22;3694;48.732;9.248;2023-02-03T11:00:22;6.90;99.90
7307;DHT22;3694;48.732;9.248;2023-02-03T11:03:00;6.90;99.90
7307;DHT22;3694;48.732;9.248;2023-02-03T11:05:27;6.90;99.90
7307;DHT22;3694;48.732;9.248;2023-02-03T11:07:53;7.10;99.90
7307;DHT22;3694;48.732;9.248;2023-02-03T11:10:32;7.20;99.90
7307;DHT22;3694;48.732;9.248;2023-02-03T11:13:11;7.40;99.90
7307;DHT22;3694;48.732;9.248;2023-02-03T11:15:42;7.60;99.90
7307;DHT22;3694;48.732;9.248;2023-02-03T11:21:30;7.60;99.90
7307;DHT22;3694;48.732;9.248;2023-02-03T11:24:20;7.50;99.90
7307;DHT22;3694;48.732;9.248;2023-02-03T11:26:50;7.30;99.90
7307;DHT22;3694;48.732;9.248;2023-02-03T11:31:51;6.90;99.90
7307;DHT22;3694;48.732;9.248;2023-02-03T11:34:36;6.90;99.90
7307;DHT22;3694;48.732;9.248;2023-02-03T11:37:31;6.80;99.90
7307;DHT22;3694;48.732;9.248;2023-02-03T11:42:34;6.90;99.90
7307;DHT22;3694;48.732;9.248;2023-02-03T11:48:14;7.10;99.90
7307;DHT22;3694;48.732;9.248;2023-02-03T11:56:56;7.60;99.90
7307;DHT22;3694;48.732;9.248;2023-02-03T12:09:00;7.30;99.90
7307;DHT22;3694;48.732;9.248;2023-02-03T12:11:44;7.20;99.90
7307;DHT22;3694;48.732;9.248;2023-02-03T12:14:56;7.20;99.90
7307;DHT22;3694;48.732;9.248;2023-02-03T12:17:25;7.10;99.90
7307;DHT22;3694;48.732;9.248;2023-02-03T12:22:42;7.00;99.90
7307;DHT22;3694;48.732;9.248;2023-02-03T12:25:44;7.00;99.90
7307;DHT22;3694;48.732;9.248;2023-02-03T12:31:37;7.10;99.90
7307;DHT22;3694;48.732;9.248;2023-02-03T12:36:59;7.10;99.90
7307;DHT22;3694;48.732;9.248;2023-02-03T12:39:40;7.00;99.90
7307;DHT22;3694;48.732;9.248;2023-02-03T12:42:19;6.90;99.90
7307;DHT22;3694;48.732;9.248;2023-02-03T12:44:59;6.90;99.90
7307;DHT22;3694;48.732;9.248;2023-02-03T12:47:33;6.90;99.90
7307;DHT22;3694;48.732;9.248;2023-02-03T12:50:12;6.80;99.90
7307;DHT22;3694;48.732;9.248;2023-02-03T12:52:44;6.70;99.90
7307;DHT22;3694;48.732;9.248;2023-02-03T12:55:40;6.70;99.90
7307;DHT22;3694;48.732;9.248;2023-02-03T12:58:20;6.70;99.90
7307;DHT22;3694;48.732;9.248;2023-02-03T13:00:57;6.70;99.90
7307;DHT22;3694;48.732;9.248;2023-02-03T13:03:50;6.70;99.90
7307;DHT22;3694;48.732;9.248;2023-02-03T13:09:26;6.60;99.90
7307;DHT22;3694;48.732;9.248;2023-02-03T13:12:28;6.70;99.90
7307;DHT22;3694;48.732;9.248;2023-02-03T13:15:01;6.70;99.90
7307;DHT22;3694;48.732;9.248;2023-02-03T13:17:30;6.60;99.90
7307;DHT22;3694;48.732;9.248;2023-02-03T13:20:14;7.00;99.90
7307;DHT22;3694;48.732;9.248;2023-02-03T13:22:41;6.70;99.90
7307;DHT22;3694;48.732;9.248;2023-02-03T13:25:28;6.80;99.90
7307;DHT22;3694;48.732;9.248;2023-02-03T13:31:21;6.80;99.90
7307;DHT22;3694;48.732;9.248;2023-02-03T13:42:06;6.80;99.90
7307;DHT22;3694;48.732;9.248;2023-02-03T13:44:35;6.80;99.90
7307;DHT22;3694;48.732;9.248;2023-02-03T13:47:02;6.80;99.90
7307;DHT22;3694;48.732;9.248;2023-02-03T13:49:30;6.80;99.90
7307;DHT22;3694;48.732;9.248;2023-02-03T13:51:57;6.80;99.90
7307;DHT22;3694;48.732;9.248;2023-02-03T13:54:27;6.80;99.90
7307;DHT22;3694;48.732;9.248;2023-02-03T13:56:56;6.80;99.90
7307;DHT22;3694;48.732;9.248;2023-02-03T13:59:39;6.70;99.90
7307;DHT22;3694;48.732;9.248;2023-02-03T14:07:35;6.80;99.90
7307;DHT22;3694;48.732;9.248;2023-02-03T14:10:18;6.80;99.90
7307;DHT22;3694;48.732;9.248;2023-02-03T14:15:30;6.90;99.90
7307;DHT22;3694;48.732;9.248;2023-02-03T14:18:42;6.90;99.90
7307;DHT22;3694;48.732;9.248;2023-02-03T14:21:12;6.90;99.90
7307;DHT22;3694;48.732;9.248;2023-02-03T14:23:44;7.00;99.90
7307;DHT22;3694;48.732;9.248;2023-02-03T14:26:17;6.90;99.90
7307;DHT22;3694;48.732;9.248;2023-02-03T14:28:45;6.90;99.90
7307;DHT22;3694;48.732;9.248;2023-02-03T14:31:13;6.90;99.90
7307;DHT22;3694;48.732;9.248;2023-02-03T14:36:37;6.90;99.90
7307;DHT22;3694;48.732;9.248;2023-02-03T14:39:29;6.90;99.90
7307;DHT22;3694;48.732;9.248;2023-02-03T14:42:18;6.90;99.90
7307;DHT22;3694;48.732;9.248;2023-02-03T14:45:02;6.90;99.90
7307;DHT22;3694;48.732;9.248;2023-02-03T14:50:02;6.90;99.90
7307;DHT22;3694;48.732;9.248;2023-02-03T14:53:06;6.90;99.90
7307;DHT22;3694;48.732;9.248;2023-02-03T14:58:44;6.80;99.90
7307;DHT22;3694;48.732;9.248;2023-02-03T15:06:38;6.70;99.90
7307;DHT22;3694;48.732;9.248;2023-02-03T15:12:00;6.60;99.90
7307;DHT22;3694;48.732;9.248;2023-02-03T15:14:29;6.60;99.90
7307;DHT22;3694;48.732;9.248;2023-02-03T15:17:11;6.50;99.90
7307;DHT22;3694;48.732;9.248;2023-02-03T15:19:41;6.50;99.90
7307;DHT22;3694;48.732;9.248;2023-02-03T15:22:24;6.40;99.90
7307;DHT22;3694;48.732;9.248;2023-02-03T15:24:56;6.40;99.90
7307;DHT22;3694;48.732;9.248;2023-02-03T15:27:27;6.40;99.90
7307;DHT22;3694;48.732;9.248;2023-02-03T15:29:54;6.40;99.90
7307;DHT22;3694;48.732;9.248;2023-02-03T15:34:54;6.20;99.90
7307;DHT22;3694;48.732;9.248;2023-02-03T15:37:29;6.20;99.90
7307;DHT22;3694;48.732;9.248;2023-02-03T15:42:40;6.20;99.90
7307;DHT22;3694;48.732;9.248;2023-02-03T15:48:08;6.20;99.90
7307;DHT22;3694;48.732;9.248;2023-02-03T15:50:41;6.20;99.90
7307;DHT22;3694;48.732;9.248;2023-02-03T15:53:19;6.10;99.90
7307;DHT22;3694;48.732;9.248;2023-02-03T15:55:49;6.10;99.90
7307;DHT22;3694;48.732;9.248;2023-02-03T15:58:25;6.10;99.90
7307;DHT22;3694;48.732;9.248;2023-02-03T16:00:54;6.00;99.90
7307;DHT22;3694;48.732;9.248;2023-02-03T16:03:32;6.00;99.90
7307;DHT22;3694;48.732;9.248;2023-02-03T16:08:51;6.00;99.90
7307;DHT22;3694;48.732;9.248;2023-02-03T16:13:59;6.10;99.90
7307;DHT22;3694;48.732;9.248;2023-02-03T16:18:55;6.00;99.90
7307;DHT22;3694;48.732;9.248;2023-02-03T16:21:29;6.10;99.90
7307;DHT22;3694;48.732;9.248;2023-02-03T16:23:56;6.00;99.90
7307;DHT22;3694;48.732;9.248;2023-02-03T16:26:23;6.00;99.90
7307;DHT22;3694;48.732;9.248;2023-02-03T16:31:48;5.90;99.90
7307;DHT22;3694;48.732;9.248;2023-02-03T16:34:33;5.90;99.90
7307;DHT22;3694;48.732;9.248;2023-02-03T16:40:06;5.90;99.90
7307;DHT22;3694;48.732;9.248;2023-02-03T16:42:51;5.80;99.90
7307;DHT22;3694;48.732;9.248;2023-02-03T16:45:35;5.80;99.90
7307;DHT22;3694;48.732;9.248;2023-02-03T16:48:19;5.70;99.90
7307;DHT22;3694;48.732;9.248;2023-02-03T16:51:09;5.80;99.90
7307;DHT22;3694;48.732;9.248;2023-02-03T16:53:35;5.70;99.90
7307;DHT22;3694;48.732;9.248;2023-02-03T16:56:03;5.70;99.90
7307;DHT22;3694;48.732;9.248;2023-02-03T16:58:29;5.70;99.90
7307;DHT22;3694;48.732;9.248;2023-02-03T17:00:58;5.70;99.90
7307;DHT22;3694;48.732;9.248;2023-02-03T17:03:26;5.70;99.90
7307;DHT22;3694;48.732;9.248;2023-02-03T17:05:52;5.70;99.90
7307;DHT22;3694;48.732;9.248;2023-02-03T17:08:21;5.70;99.90
7307;DHT22;3694;48.732;9.248;2023-02-03T17:10:48;5.70;99.90
7307;DHT22;3694;48.732;9.248;2023-02-03T17:13:15;5.70;99.90
7307;DHT22;3694;48.732;9.248;2023-02-03T17:15:43;5.80;99.90
7307;DHT22;3694;48.732;9.248;2023-02-03T17:18:09;5.70;99.90
7307;DHT22;3694;48.732;9.248;2023-02-03T17:20:35;5.80;99.90
7307;DHT22;3694;48.732;9.248;2023-02-03T17:23:01;5.80;99.90
7307;DHT22;3694;48.732;9.248;2023-02-03T17:25:26;5.80;99.90
7307;DHT22;3694;48.732;9.248;2023-02-03T17:27:52;5.80;99.90
7307;DHT22;3694;48.732;9.248;2023-02-03T17:30:17;5.80;99.90
7307;DHT22;3694;48.732;9.248;2023-02-03T17:32:43;5.80;99.90
7307;DHT22;3694;48.732;9.248;2023-02-03T17:35:08;5.70;99.90
7307;DHT22;3694;48.732;9.248;2023-02-03T17:37:34;5.80;99.90
7307;DHT22;3694;48.732;9.248;2023-02-03T17:40:01;5.80;99.90
7307;DHT22;3694;48.732;9.248;2023-02-03T17:42:26;5.80;99.90
7307;DHT22;3694;48.732;9.248;2023-02-03T17:44:52;5.80;99.90
7307;DHT22;3694;48.732;9.248;2023-02-03T17:47:17;5.80;99.90
7307;DHT22;3694;48.732;9.248;2023-02-03T17:49:43;5.80;99.90
7307;DHT22;3694;48.732;9.248;2023-02-03T17:52:11;5.80;99.90
7307;DHT22;3694;48.732;9.248;2023-02-03T17:54:37;5.80;99.90
7307;DHT22;3694;48.732;9.248;2023-02-03T17:57:02;5.80;99.90
7307;DHT22;3694;48.732;9.248;2023-02-03T17:59:28;5.90;99.90
7307;DHT22;3694;48.732;9.248;2023-02-03T18:01:54;5.80;99.90
7307;DHT22;3694;48.732;9.248;2023-02-03T18:04:19;5.80;99.90
7307;DHT22;3694;48.732;9.248;2023-02-03T18:06:45;5.80;99.90
7307;DHT22;3694;48.732;9.248;2023-02-03T18:09:10;5.90;99.90
7307;DHT22;3694;48.732;9.248;2023-02-03T18:11:38;5.90;99.90
7307;DHT22;3694;48.732;9.248;2023-02-03T18:14:04;5.90;99.90
7307;DHT22;3694;48.732;9.248;2023-02-03T18:16:31;5.90;99.90
7307;DHT22;3694;48.732;9.248;2023-02-03T18:18:58;5.90;99.90
7307;DHT22;3694;48.732;9.248;2023-02-03T18:21:25;5.90;99.90
7307;DHT22;3694;48.732;9.248;2023-02-03T18:23:51;5.90;99.90
7307;DHT22;3694;48.732;9.248;2023-02-03T18:26:21;5.90;99.90
7307;DHT22;3694;48.732;9.248;2023-02-03T18:28:50;5.90;99.90
7307;DHT22;3694;48.732;9.248;2023-02-03T18:31:16;5.90;99.90
7307;DHT22;3694;48.732;9.248;2023-02-03T18:33:43;6.00;99.90
7307;DHT22;3694;48.732;9.248;2023-02-03T18:36:09;6.00;99.90
7307;DHT22;3694;48.732;9.248;2023-02-03T18:38:39;6.00;99.90
7307;DHT22;3694;48.732;9.248;2023-02-03T18:41:19;6.00;99.90
7307;DHT22;3694;48.732;9.248;2023-02-03T18:43:46;6.00;99.90
7307;DHT22;3694;48.732;9.248;2023-02-03T18:46:17;6.00;99.90
7307;DHT22;3694;48.732;9.248;2023-02-03T18:48:42;6.10;99.90
7307;DHT22;3694;48.732;9.248;2023-02-03T18:51:09;6.00;99.90